Time;durP1;ratioP1;P1;durP2;ratioP2;P2;SDS_P1;SDS_P2;PMS_P1;PMS_P2;Temp;Humidity;BMP_temperature;BMP_pressure;BME280_temperature;BME280_humidity;BME280_pressure;Samples;Min_cycle;Max_cycle;Signal;HPM_P1;HPM_P2
2021/09/10 00:01:01;;;;;;;18.30;16.80;;;17.90;96.30;;;16.94;94.78;97825.75;5029569;28;20458;-73
2021/09/10 00:03:28;;;;;;;18.53;16.83;;;17.70;96.40;;;16.84;95.24;97825.69;5025947;28;20466;-73
2021/09/10 00:05:54;;;;;;;18.10;16.30;;;17.70;96.70;;;16.79;95.61;97826.47;5026150;28;20490;-74
2021/09/10 00:08:22;;;;;;;18.37;16.67;;;17.60;97.20;;;16.80;96.15;97832.75;5028383;28;20458;-73
2021/09/10 00:10:49;;;;;;;17.93;16.30;;;17.60;97.90;;;16.75;96.02;97830.78;5025669;28;20463;-73
2021/09/10 00:13:17;;;;;;;18.27;16.67;;;17.50;97.70;;;16.73;96.50;97826.69;5025526;28;20489;-73
2021/09/10 00:15:44;;;;;;;17.77;16.17;;;17.50;98.30;;;16.80;96.32;97827.28;5028327;28;20462;-74
2021/09/10 00:18:11;;;;;;;17.57;15.97;;;17.60;98.10;;;16.83;96.44;97837.69;5027708;28;20565;-73
2021/09/10 00:20:38;;;;;;;18.80;17.10;;;17.60;98.20;;;16.87;95.90;97836.06;5028349;28;20486;-73
2021/09/10 00:23:05;;;;;;;19.27;17.27;;;17.60;97.60;;;16.79;95.99;97836.56;5027135;28;20857;-73
2021/09/10 00:25:32;;;;;;;18.23;16.63;;;17.60;97.30;;;16.70;96.04;97833.50;5024803;28;20470;-73
2021/09/10 00:27:59;;;;;;;18.37;16.47;;;17.50;97.50;;;16.67;96.70;97836.72;5026929;28;20552;-73
2021/09/10 00:30:27;;;;;;;18.43;16.77;;;17.50;98.40;;;16.58;96.59;97836.38;5028805;28;20950;-73
2021/09/10 00:32:54;;;;;;;19.30;17.30;;;17.30;98.30;;;16.50;96.94;97829.47;5027511;28;20560;-73
2021/09/10 00:35:21;;;;;;;19.67;17.87;;;17.30;98.80;;;16.50;97.22;97832.22;5032582;28;20885;-73
2021/09/10 00:37:48;;;;;;;18.63;16.93;;;17.30;99.20;;;16.48;97.62;97825.41;5032274;28;20553;-73
2021/09/10 00:40:15;;;;;;;18.43;16.80;;;17.20;99.60;;;16.52;97.27;97826.50;5030871;28;20553;-73
2021/09/10 00:42:42;;;;;;;18.77;17.10;;;17.30;99.60;;;16.53;97.21;97836.34;5031589;28;20565;-73
2021/09/10 00:45:11;;;;;;;18.40;16.60;;;17.30;99.30;;;16.54;96.90;97832.53;5030307;28;20540;-73
2021/09/10 00:47:42;;;;;;;18.97;17.23;;;17.30;99.00;;;16.55;96.80;97836.91;5031304;28;20581;-73
2021/09/10 00:50:10;;;;;;;17.90;16.30;;;17.30;99.20;;;16.59;96.74;97831.75;5028660;28;20454;-73
2021/09/10 00:52:38;;;;;;;18.60;17.00;;;17.30;98.50;;;16.53;96.57;97828.16;5029685;28;20489;-73
2021/09/10 00:55:06;;;;;;;19.97;18.20;;;17.30;98.20;;;16.51;96.45;97824.88;5032754;28;20538;-73
2021/09/10 00:57:33;;;;;;;18.57;16.57;;;17.30;97.80;;;16.46;96.36;97822.09;5029485;28;24142;-73
2021/09/10 01:00:00;;;;;;;19.17;17.27;;;17.20;97.80;;;16.42;96.63;97825.31;5031286;28;20450;-73
2021/09/10 01:02:27;;;;;;;16.83;15.10;;;17.20;98.30;;;16.37;96.68;97822.56;5031804;28;20592;-72
2021/09/10 01:04:56;;;;;;;17.87;16.27;;;17.20;98.40;;;16.35;97.08;97826.63;5031580;28;20531;-73
2021/09/10 01:07:25;;;;;;;17.20;15.80;;;17.10;98.80;;;16.45;96.59;97828.59;5032128;28;20560;-73
2021/09/10 01:09:53;;;;;;;17.60;16.10;;;17.20;98.70;;;16.39;96.60;97835.94;5034622;28;20463;-73
2021/09/10 01:12:21;;;;;;;18.37;16.77;;;17.20;98.20;;;16.46;96.44;97828.38;5030804;28;20930;-72
2021/09/10 01:14:48;;;;;;;18.73;17.10;;;17.20;98.00;;;16.48;95.92;97822.66;5031394;28;20454;-72
2021/09/10 01:17:15;;;;;;;18.27;16.30;;;17.20;97.30;;;16.40;96.12;97824.75;5028227;28;20544;-73
2021/09/10 01:19:42;;;;;;;18.50;16.70;;;17.20;97.30;;;16.50;95.85;97834.94;5030934;28;20494;-73
2021/09/10 01:22:11;;;;;;;19.07;17.30;;;17.20;97.30;;;16.54;95.33;97827.06;5030514;28;20553;-73
2021/09/10 01:25:02;;;;;;;17.70;16.10;;;17.30;97.00;;;16.53;95.53;97828.16;5030449;28;21144;-73
2021/09/10 01:27:29;;;;;;;16.97;15.20;;;17.30;97.00;;;16.53;95.11;97836.34;5024361;28;20474;-73
2021/09/10 01:29:58;;;;;;;17.27;15.67;;;17.20;96.40;;;16.45;94.95;97831.34;5048178;28;20524;-73
2021/09/10 01:32:25;;;;;;;18.83;17.07;;;17.20;96.40;;;16.33;95.27;97829.63;5031155;28;21064;-73
2021/09/10 01:34:52;;;;;;;16.90;15.47;;;17.10;96.50;;;16.26;95.93;97831.72;5030530;28;20549;-73
2021/09/10 01:37:19;;;;;;;18.33;16.63;;;17.00;96.90;;;16.20;96.28;97830.03;5031876;28;20446;-73
2021/09/10 01:39:47;;;;;;;18.73;16.87;;;17.00;97.40;;;16.13;96.20;97831.03;5033847;28;20544;-73
2021/09/10 01:42:14;;;;;;;19.50;17.50;;;16.90;97.40;;;16.06;96.18;97835.88;5029547;28;20473;-73
2021/09/10 01:44:41;;;;;;;17.97;16.27;;;16.90;97.70;;;16.09;96.49;97826.38;5029278;28;20463;-73
2021/09/10 01:47:08;;;;;;;17.60;15.97;;;16.80;98.20;;;16.07;96.62;97833.97;5031604;28;20839;-73
2021/09/10 01:49:35;;;;;;;19.40;17.50;;;16.80;98.00;;;15.95;96.47;97839.56;5047420;28;20895;-73
2021/09/10 01:52:02;;;;;;;18.40;16.60;;;16.80;97.70;;;15.89;96.71;97841.41;5029236;28;20486;-73
2021/09/10 01:54:29;;;;;;;18.00;16.50;;;16.70;98.10;;;15.79;97.46;97833.09;5028381;28;20555;-73
2021/09/10 01:56:58;;;;;;;18.30;16.50;;;16.60;98.80;;;15.69;97.88;97831.03;5044476;28;20550;-73
2021/09/10 01:59:25;;;;;;;19.20;17.50;;;16.60;99.20;;;15.62;98.01;97841.31;5032984;28;20549;-73
2021/09/10 02:01:52;;;;;;;19.07;17.30;;;16.50;99.70;;;15.66;98.44;97837.00;5030806;28;20547;-73
2021/09/10 02:04:19;;;;;;;18.53;16.93;;;16.50;99.90;;;15.73;97.89;97841.19;5033231;28;20470;-73
2021/09/10 02:06:47;;;;;;;20.00;18.33;;;16.50;99.90;;;15.60;97.82;97844.28;5031189;28;20563;-73
2021/09/10 02:09:14;;;;;;;19.70;17.73;;;16.40;99.70;;;15.55;98.94;97836.88;5033079;28;20572;-73
2021/09/10 02:11:41;;;;;;;19.20;17.33;;;16.30;99.90;;;15.54;99.21;97839.84;5024098;28;20955;-73
2021/09/10 02:14:09;;;;;;;19.80;18.13;;;16.40;99.90;;;15.53;98.54;97839.00;5025780;28;20497;-72
2021/09/10 02:16:37;;;;;;;19.37;17.50;;;16.30;99.90;;;15.61;98.62;97842.38;5030868;28;20553;-77
2021/09/10 02:19:04;;;;;;;20.20;18.30;;;16.40;99.90;;;15.55;98.28;97834.16;5028961;28;20486;-73
2021/09/10 02:21:30;;;;;;;18.53;16.80;;;16.40;99.90;;;15.54;98.35;97828.97;5027564;28;20474;-73
2021/09/10 02:23:58;;;;;;;18.70;16.80;;;16.30;99.90;;;15.62;98.62;97831.25;5026578;28;20545;-73
2021/09/10 02:26:24;;;;;;;19.70;17.90;;;16.40;99.90;;;15.69;97.88;97833.75;5044677;28;20498;-73
2021/09/10 02:28:51;;;;;;;19.00;17.20;;;16.40;99.60;;;15.50;98.18;97825.91;5029619;28;20450;-73
2021/09/10 02:31:20;;;;;;;18.60;16.90;;;16.40;99.30;;;15.67;97.69;97830.47;5029616;28;20533;-73
2021/09/10 02:33:47;;;;;;;19.27;17.47;;;16.40;99.70;;;15.66;97.43;97831.56;5027706;28;20470;-73
2021/09/10 02:36:14;;;;;;;19.40;17.50;;;16.40;99.20;;;15.60;97.75;97835.31;5028619;28;20547;-72
2021/09/10 02:38:41;;;;;;;20.03;18.33;;;16.40;98.70;;;15.52;97.66;97829.19;5028437;28;20798;-72
2021/09/10 02:41:08;;;;;;;19.90;18.20;;;16.40;99.20;;;15.38;97.99;97836.09;5028383;28;20533;-73
2021/09/10 02:43:37;;;;;;;19.40;17.60;;;16.30;99.50;;;15.30;98.84;97838.19;5030405;28;21263;-73
2021/09/10 02:46:04;;;;;;;20.47;18.67;;;16.20;99.90;;;15.34;98.87;97834.94;5029290;28;20573;-73
2021/09/10 02:48:32;;;;;;;19.60;17.80;;;16.20;99.90;;;15.34;99.13;97830.34;5029274;28;21002;-72
2021/09/10 02:50:59;;;;;;;18.03;16.33;;;16.20;99.90;;;15.33;98.80;97833.31;5028990;28;20554;-73
2021/09/10 02:53:26;;;;;;;19.77;17.87;;;16.20;99.90;;;15.29;98.95;97841.13;5028680;28;20797;-73
2021/09/10 02:55:53;;;;;;;19.90;17.83;;;16.10;99.90;;;15.26;98.88;97839.75;5027375;28;20521;-72
2021/09/10 02:58:20;;;;;;;18.37;16.53;;;16.10;99.90;;;15.34;98.29;97837.66;5028160;28;20513;-73
2021/09/10 03:00:47;;;;;;;19.80;17.90;;;16.10;99.90;;;15.33;98.26;97834.13;5029209;28;20557;-73
2021/09/10 03:03:14;;;;;;;20.90;18.80;;;16.10;99.90;;;15.30;98.41;97835.47;5026895;28;20489;-73
2021/09/10 03:05:42;;;;;;;20.60;18.70;;;16.10;99.60;;;15.20;97.93;97826.34;5030254;28;20541;-73
2021/09/10 03:08:09;;;;;;;19.77;17.67;;;16.10;99.40;;;15.18;98.50;97832.00;5028685;28;20520;-72
2021/09/10 03:10:36;;;;;;;20.27;18.30;;;16.10;99.90;;;15.17;98.28;97824.94;5027479;28;20541;-72
2021/09/10 03:13:03;;;;;;;18.27;16.50;;;16.10;99.70;;;15.12;98.31;97830.31;5027753;28;20482;-73
2021/09/10 03:15:30;;;;;;;18.97;16.97;;;16.00;99.80;;;15.08;98.65;97826.41;5026366;28;20454;-75
2021/09/10 03:17:57;;;;;;;19.30;17.40;;;15.90;99.90;;;15.03;98.94;97824.47;5026424;28;20446;-73
2021/09/10 03:20:24;;;;;;;18.17;16.57;;;15.90;99.90;;;15.06;98.80;97825.84;5027075;28;20466;-73
2021/09/10 03:22:52;;;;;;;17.53;16.03;;;15.90;99.90;;;15.07;98.78;97822.03;5026246;28;20582;-73
2021/09/10 03:25:19;;;;;;;18.77;16.83;;;15.90;99.90;;;15.06;98.18;97823.97;5025588;28;20562;-73
2021/09/10 03:27:46;;;;;;;18.73;16.93;;;15.90;98.90;;;15.06;97.75;97834.00;5027772;28;20470;-73
2021/09/10 03:30:14;;;;;;;19.27;17.27;;;15.90;98.90;;;14.94;98.34;97834.94;5029457;28;20573;-73
2021/09/10 03:32:42;;;;;;;18.60;16.93;;;15.80;98.80;;;14.95;98.83;97831.16;5027877;28;20464;-74
2021/09/10 03:35:10;;;;;;;19.53;17.83;;;15.80;99.90;;;14.85;98.60;97822.81;5025589;28;20541;-73
2021/09/10 03:37:37;;;;;;;19.07;17.20;;;15.80;99.60;;;14.85;98.54;97833.69;5028139;28;20553;-73
2021/09/10 03:40:06;;;;;;;19.50;17.80;;;15.70;99.90;;;14.80;98.69;97830.91;5026316;28;20483;-73
2021/09/10 03:42:35;;;;;;;19.53;17.50;;;15.70;99.70;;;14.81;98.83;97832.56;5027586;28;20923;-73
2021/09/10 03:45:02;;;;;;;18.20;16.73;;;15.70;99.90;;;14.75;98.84;97822.66;5029429;28;21015;-73
2021/09/10 03:47:29;;;;;;;17.63;16.13;;;15.70;99.80;;;14.70;98.76;97824.19;5026951;28;20473;-73
2021/09/10 03:49:56;;;;;;;20.20;18.10;;;15.70;99.80;;;14.70;99.15;97831.50;5028556;28;20938;-73
2021/09/10 03:52:23;;;;;;;19.60;17.70;;;15.60;99.70;;;14.70;98.84;97832.34;5025357;28;20568;-73
2021/09/10 03:54:50;;;;;;;17.47;15.97;;;15.60;99.80;;;14.69;99.17;97827.97;5028124;28;21012;-74
2021/09/10 03:57:18;;;;;;;19.90;18.10;;;15.70;99.50;;;14.72;98.98;97826.72;5022520;28;20490;-73
2021/09/10 03:59:45;;;;;;;18.90;17.30;;;15.60;99.60;;;14.73;98.73;97821.00;5028012;28;20652;-73
2021/09/10 04:02:12;;;;;;;18.27;16.47;;;15.60;99.90;;;14.71;98.65;97834.03;5024785;28;20589;-74
2021/09/10 04:04:39;;;;;;;18.80;17.00;;;15.60;99.60;;;14.77;98.27;97831.38;5024339;28;20542;-73
2021/09/10 04:07:06;;;;;;;18.13;16.33;;;15.60;99.40;;;14.81;97.65;97832.56;5027217;28;20474;-74
2021/09/10 04:09:33;;;;;;;19.80;17.80;;;15.70;98.50;;;14.84;97.99;97832.84;5026296;28;20474;-73
2021/09/10 04:12:00;;;;;;;17.90;16.30;;;15.70;98.70;;;14.92;97.50;97837.06;5026599;28;20562;-73
2021/09/10 04:14:28;;;;;;;16.83;15.33;;;15.70;98.30;;;14.91;97.53;97829.97;5028928;28;20498;-74
2021/09/10 04:16:55;;;;;;;16.97;15.40;;;15.80;98.00;;;15.04;96.71;97830.72;5027382;28;20566;-73
2021/09/10 04:19:22;;;;;;;17.10;15.40;;;15.80;97.10;;;15.09;96.12;97831.63;5027097;28;22019;-73
2021/09/10 04:21:49;;;;;;;16.60;15.10;;;15.90;96.80;;;15.07;95.37;97841.09;5026057;28;20476;-74
2021/09/10 04:24:17;;;;;;;15.93;14.47;;;15.90;95.80;;;14.97;95.60;97823.56;5024823;28;20895;-73
2021/09/10 04:26:45;;;;;;;16.07;14.57;;;15.90;96.10;;;15.04;95.40;97844.31;5029341;28;20538;-74
2021/09/10 04:29:11;;;;;;;16.57;15.10;;;15.90;95.90;;;15.06;95.20;97840.28;5025316;28;20455;-74
2021/09/10 04:31:40;;;;;;;16.30;14.90;;;15.90;95.80;;;15.10;95.56;97835.19;5026478;28;20825;-74
2021/09/10 04:34:07;;;;;;;17.50;15.70;;;15.90;95.90;;;15.00;94.49;97804.00;5026872;28;20524;-74
2021/09/10 04:36:34;;;;;;;19.00;17.00;;;16.00;95.20;;;15.23;93.93;97834.00;5023732;28;21361;-73
2021/09/10 04:39:01;;;;;;;16.13;14.40;;;16.00;94.50;;;15.25;92.96;97840.00;5027025;28;20516;-74
2021/09/10 04:41:28;;;;;;;16.27;14.67;;;16.10;93.80;;;15.27;93.21;97843.28;5027654;28;20545;-74
2021/09/10 04:43:55;;;;;;;15.47;14.07;;;16.10;93.80;;;15.20;92.99;97829.84;5026466;28;20517;-74
2021/09/10 04:46:22;;;;;;;15.10;13.70;;;16.10;93.50;;;15.32;92.64;97842.53;5017151;28;20535;-74
2021/09/10 04:48:50;;;;;;;17.00;15.10;;;16.10;93.50;;;15.33;92.40;97849.63;5041632;28;20566;-74
2021/09/10 04:51:17;;;;;;;16.07;14.30;;;16.10;93.40;;;15.29;92.57;97847.41;5025346;28;20550;-74
2021/09/10 04:53:44;;;;;;;16.13;14.27;;;16.10;93.20;;;15.35;91.77;97847.47;5026399;28;20528;-74
2021/09/10 04:56:11;;;;;;;15.97;14.30;;;16.20;92.90;;;15.42;91.61;97843.50;5026712;28;20922;-73
2021/09/10 04:58:39;;;;;;;17.53;14.80;;;16.20;92.60;;;15.46;91.70;97838.38;5027923;28;20486;-73
2021/09/10 05:01:06;;;;;;;15.00;13.60;;;16.30;92.70;;;15.55;90.56;97842.34;5041570;28;20553;-73
2021/09/10 05:03:32;;;;;;;15.80;14.40;;;16.30;92.10;;;15.55;90.12;97836.88;5025714;28;20461;-73
2021/09/10 05:06:01;;;;;;;16.53;14.80;;;16.40;91.80;;;15.65;89.50;97843.53;5031715;28;20549;-75
2021/09/10 05:08:28;;;;;;;16.13;14.73;;;16.50;91.40;;;15.63;89.43;97830.19;5028607;28;20471;-75
2021/09/10 05:10:55;;;;;;;15.20;13.70;;;16.50;91.10;;;15.79;88.87;97842.06;5028478;28;20831;-75
2021/09/10 05:13:40;;;;;;;15.43;13.80;;;16.60;90.80;;;15.84;88.25;97839.41;5027186;28;20445;-75
2021/09/10 05:16:07;;;;;;;15.30;14.00;;;16.70;90.30;;;15.86;87.84;97848.16;5021551;28;21111;-75
2021/09/10 05:18:34;;;;;;;16.10;13.90;;;16.70;90.10;;;15.85;87.51;97838.34;5023871;28;22236;-75
2021/09/10 05:21:03;;;;;;;16.47;14.03;;;16.70;90.00;;;15.93;87.48;97842.56;5034838;28;21027;-75
2021/09/10 05:23:30;;;;;;;16.43;14.90;;;16.80;89.80;;;15.73;87.41;97799.53;5027285;28;20641;-75
2021/09/10 05:25:57;;;;;;;14.60;13.33;;;16.80;89.50;;;15.98;87.24;97841.75;5025996;28;20494;-74
2021/09/10 05:28:24;;;;;;;14.37;12.90;;;16.90;89.40;;;16.23;86.46;97845.84;5031831;28;20559;-74
2021/09/10 05:30:51;;;;;;;15.13;13.60;;;17.00;88.70;;;16.32;85.18;97844.31;5029120;28;20798;-75
2021/09/10 05:33:18;;;;;;;18.17;15.33;;;17.10;87.80;;;16.48;84.22;97852.66;5030170;28;20458;-74
2021/09/10 05:35:46;;;;;;;14.50;13.00;;;17.30;87.10;;;16.59;84.11;97857.09;5027634;28;20993;-75
2021/09/10 05:38:14;;;;;;;15.00;13.60;;;17.40;86.70;;;16.65;83.16;97847.06;5024999;28;21068;-75
2021/09/10 05:40:41;;;;;;;14.63;13.10;;;17.50;85.80;;;16.69;83.28;97854.47;5029340;28;20486;-74
2021/09/10 05:43:08;;;;;;;14.93;13.50;;;17.50;85.70;;;16.68;82.84;97863.75;5029636;28;20522;-75
2021/09/10 05:45:36;;;;;;;14.77;13.50;;;17.60;85.10;;;16.80;82.57;97860.03;5041673;28;20463;-75
2021/09/10 05:48:03;;;;;;;14.83;13.33;;;17.60;85.00;;;16.81;82.02;97858.94;5029131;28;20932;-74
2021/09/10 05:50:30;;;;;;;16.60;13.80;;;17.70;84.40;;;16.85;81.98;97857.34;5045398;28;20494;-74
2021/09/10 05:52:57;;;;;;;14.90;13.50;;;17.70;84.30;;;16.93;81.68;97859.59;5028312;28;20454;-74
2021/09/10 05:55:25;;;;;;;14.63;13.17;;;17.80;84.10;;;16.95;81.41;97857.44;5030669;28;20549;-75
2021/09/10 05:57:52;;;;;;;17.27;13.40;;;17.80;83.60;;;16.99;81.19;97853.09;5032982;28;20554;-72
2021/09/10 06:00:20;;;;;;;20.07;13.33;;;17.90;83.40;;;17.07;80.98;97856.47;5030262;28;20550;-73
2021/09/10 06:02:47;;;;;;;14.83;13.33;;;17.90;83.10;;;17.15;80.43;97861.41;5028302;28;20497;-73
2021/09/10 06:05:14;;;;;;;14.33;13.03;;;18.00;82.70;;;17.08;80.48;97849.91;5026987;28;21016;-73
2021/09/10 06:07:41;;;;;;;14.77;13.23;;;18.00;82.70;;;17.05;80.72;97859.44;5028357;28;20497;-73
2021/09/10 06:10:09;;;;;;;13.77;12.60;;;18.00;82.60;;;17.20;80.07;97858.69;5029118;28;20462;-73
2021/09/10 06:12:37;;;;;;;14.67;13.27;;;18.10;82.50;;;17.17;79.99;97861.97;5028804;28;21249;-74
2021/09/10 06:15:05;;;;;;;15.40;13.93;;;18.10;82.20;;;17.28;79.86;97860.97;5028711;28;20545;-74
2021/09/10 06:17:32;;;;;;;15.23;13.73;;;18.20;82.00;;;17.31;79.77;97865.06;5026521;28;21100;-74
2021/09/10 06:19:59;;;;;;;15.73;14.10;;;18.20;81.70;;;17.38;79.32;97875.78;5043027;28;20458;-74
2021/09/10 06:22:27;;;;;;;16.23;14.10;;;18.30;81.50;;;17.45;79.36;97881.00;5026058;28;20986;-74
2021/09/10 06:24:54;;;;;;;19.57;17.50;;;18.30;81.30;;;17.59;78.48;97876.72;5027220;28;20470;-74
2021/09/10 06:27:22;;;;;;;13.43;12.13;;;18.40;81.00;;;17.60;78.56;97878.34;5026856;28;20462;-73
2021/09/10 06:29:50;;;;;;;19.70;17.63;;;18.50;80.70;;;17.68;77.91;97880.56;5027795;28;20819;-73
2021/09/10 06:32:17;;;;;;;15.60;14.07;;;18.60;80.30;;;17.79;77.75;97886.09;5026164;28;20474;-74
2021/09/10 06:34:45;;;;;;;14.10;12.90;;;18.70;79.90;;;17.91;77.23;97883.13;5025490;28;20537;-74
2021/09/10 06:37:12;;;;;;;15.40;13.87;;;18.80;79.50;;;17.97;76.29;97877.41;5027054;28;20486;-74
2021/09/10 06:39:39;;;;;;;23.90;18.40;;;18.90;78.60;;;17.99;75.21;97868.97;5025930;28;22959;-74
2021/09/10 06:42:06;;;;;;;18.83;16.13;;;19.00;77.80;;;18.16;75.51;97878.91;5025860;28;20498;-74
2021/09/10 06:44:33;;;;;;;12.97;11.87;;;19.00;77.70;;;18.26;75.45;97878.91;5033051;28;20989;-77
2021/09/10 06:47:02;;;;;;;21.07;18.30;;;19.20;77.40;;;18.34;74.98;97875.66;5033126;28;20446;-75
2021/09/10 06:49:29;;;;;;;16.37;12.60;;;19.20;77.10;;;18.32;74.65;97883.31;5028182;28;20588;-76
2021/09/10 06:51:56;;;;;;;13.70;12.40;;;19.30;76.70;;;18.32;74.44;97864.16;5027690;28;20528;-76
2021/09/10 06:54:23;;;;;;;13.37;11.87;;;19.40;76.50;;;18.45;74.67;97878.44;5027563;28;20544;-76
2021/09/10 06:56:50;;;;;;;13.50;12.40;;;19.40;76.50;;;18.41;74.52;97873.47;5010201;28;20515;-75
2021/09/10 06:59:19;;;;;;;17.97;16.07;;;19.40;76.30;;;18.62;73.25;97864.47;5029947;28;20809;-81
2021/09/10 07:01:46;;;;;;;16.53;12.80;;;19.50;75.80;;;18.68;73.00;97879.81;5028819;28;20457;-77
2021/09/10 07:04:15;;;;;;;13.80;12.50;;;19.60;75.20;;;18.73;72.99;97887.19;5029113;28;20478;-77
2021/09/10 07:06:42;;;;;;;15.23;12.10;;;19.60;75.10;;;18.80;72.52;97879.56;5030125;28;20454;-79
2021/09/10 07:09:10;;;;;;;12.67;11.57;;;19.70;74.70;;;18.94;71.42;97886.13;5026400;28;20588;-78
2021/09/10 07:11:37;;;;;;;12.67;11.50;;;19.80;74.00;;;18.96;71.95;97877.66;5026504;28;20461;-78
2021/09/10 07:14:05;;;;;;;12.57;11.33;;;19.90;74.10;;;19.10;71.02;97875.19;5031391;28;20575;-78
2021/09/10 07:16:32;;;;;;;13.43;12.03;;;20.00;73.50;;;19.08;70.75;97880.13;5028948;28;20509;-78
2021/09/10 07:19:00;;;;;;;12.90;11.67;;;20.10;73.00;;;19.24;69.87;97887.25;5031197;28;20465;-78
2021/09/10 07:21:28;;;;;;;12.03;10.90;;;20.10;72.40;;;19.33;69.50;97889.41;5051841;28;20459;-78
2021/09/10 07:23:55;;;;;;;12.47;11.00;;;20.20;72.10;;;19.48;68.44;97883.91;5048633;28;20542;-78
2021/09/10 07:26:23;;;;;;;15.63;11.60;;;20.30;71.40;;;19.51;68.50;97888.00;5031331;28;20576;-78
2021/09/10 07:28:50;;;;;;;12.00;10.80;;;20.40;71.20;;;19.61;67.93;97889.91;5031031;28;20445;-78
2021/09/10 07:31:18;;;;;;;12.27;11.07;;;20.40;70.50;;;19.64;67.45;97894.84;5033551;28;20277;-78
2021/09/10 07:33:45;;;;;;;12.90;11.80;;;20.50;69.90;;;19.73;66.90;97895.91;5047422;28;20915;-79
2021/09/10 07:36:12;;;;;;;12.27;10.97;;;20.60;69.60;;;19.91;65.66;97890.91;5028818;28;20900;-77
2021/09/10 07:38:41;;;;;;;13.80;11.87;;;20.70;68.50;;;19.88;65.96;97895.06;5033641;28;20483;-78
2021/09/10 07:41:08;;;;;;;12.17;10.93;;;20.80;68.70;;;19.95;66.27;97894.78;5031154;28;20795;-78
2021/09/10 07:43:35;;;;;;;11.93;10.93;;;20.80;68.90;;;20.01;64.72;97893.66;5027511;28;20580;-78
2021/09/10 07:46:02;;;;;;;11.10;10.10;;;20.80;67.80;;;20.14;63.87;97896.91;5027873;28;20485;-78
2021/09/10 07:48:29;;;;;;;10.73;9.77;;;20.90;67.20;;;20.26;63.54;97891.91;5028885;28;20482;-78
2021/09/10 07:50:56;;;;;;;11.20;10.10;;;21.00;66.80;;;20.31;64.08;97888.28;5029700;28;20443;-79
2021/09/10 07:53:23;;;;;;;11.93;10.73;;;21.10;66.80;;;20.27;63.09;97874.34;5034325;28;20470;-79
2021/09/10 07:55:52;;;;;;;10.80;9.80;;;21.30;66.30;;;20.55;62.26;97895.84;5033486;28;20458;-77
2021/09/10 07:58:20;;;;;;;12.80;11.10;;;21.40;65.80;;;20.74;61.10;97901.50;5029732;28;20457;-78
2021/09/10 08:00:47;;;;;;;11.60;10.43;;;21.40;65.00;;;20.75;61.53;97897.63;5029952;28;20598;-79
2021/09/10 08:03:14;;;;;;;11.20;10.10;;;21.50;64.90;;;20.84;61.63;97898.69;5030555;28;20974;-78
2021/09/10 08:05:41;;;;;;;12.00;10.77;;;21.60;65.00;;;20.98;60.63;97895.28;5011284;28;20505;-77
2021/09/10 08:08:08;;;;;;;12.47;10.50;;;21.80;64.60;;;21.07;59.99;97896.31;5025218;28;21009;-78
2021/09/10 08:10:35;;;;;;;12.30;10.70;;;21.80;63.80;;;21.17;59.71;97901.75;5028198;28;20538;-77
2021/09/10 08:13:04;;;;;;;11.40;10.20;;;22.00;63.70;;;21.18;60.70;97914.38;5031381;28;20493;-77
2021/09/10 08:15:33;;;;;;;14.70;10.10;;;22.00;64.20;;;21.19;60.54;97915.16;5047213;28;20516;-76
2021/09/10 08:18:01;;;;;;;11.67;10.67;;;22.00;64.10;;;21.44;60.09;97919.59;5029773;28;20466;-78
2021/09/10 08:20:28;;;;;;;12.00;10.80;;;22.20;64.10;;;21.55;59.55;97919.53;5031188;28;20583;-79
2021/09/10 08:22:58;;;;;;;13.00;10.03;;;22.30;64.10;;;21.52;58.99;97918.16;5028468;28;20485;-78
2021/09/10 08:25:25;;;;;;;11.87;10.50;;;22.30;62.90;;;21.56;58.91;97919.25;5028998;28;20538;-77
2021/09/10 08:27:52;;;;;;;11.98;10.77;;;22.30;63.00;;;21.62;58.70;97928.25;5028754;28;20464;-81
2021/09/10 08:30:21;;;;;;;12.67;10.40;;;22.40;62.90;;;21.77;57.96;97928.13;5034880;28;20651;-82
2021/09/10 08:32:49;;;;;;;12.47;10.90;;;22.50;62.40;;;21.84;58.01;97935.19;5031742;28;20466;-77
2021/09/10 08:35:17;;;;;;;12.03;8.93;;;22.50;62.50;;;21.90;57.74;97928.53;5029402;28;20807;-77
2021/09/10 08:37:44;;;;;;;11.07;10.17;;;22.60;62.20;;;21.99;56.58;97917.69;5027632;28;20462;-77
2021/09/10 08:40:11;;;;;;;10.90;9.80;;;22.80;61.70;;;22.25;56.05;97926.47;5030410;28;20458;-77
2021/09/10 08:42:38;;;;;;;10.53;9.60;;;22.90;61.30;;;22.02;56.71;97930.88;5025932;28;20576;-78
2021/09/10 08:45:07;;;;;;;11.50;10.40;;;22.90;61.30;;;22.17;56.43;97927.09;5023656;28;20459;-77
2021/09/10 08:47:36;;;;;;;10.70;9.60;;;22.90;61.30;;;22.32;55.86;97924.16;5030947;28;20482;-77
2021/09/10 08:50:03;;;;;;;10.20;9.37;;;23.10;61.00;;;22.37;54.65;97917.78;5027908;28;20569;-77
2021/09/10 08:52:30;;;;;;;10.53;9.40;;;23.20;60.30;;;22.28;54.37;97928.63;5026999;28;20954;-77
2021/09/10 08:54:57;;;;;;;12.00;9.97;;;23.10;59.60;;;22.44;54.48;97936.69;5030186;28;20466;-78
2021/09/10 08:57:26;;;;;;;10.07;9.37;;;23.20;59.90;;;22.31;55.12;97917.03;5012972;28;20640;-77
2021/09/10 09:00:05;;;;;;;11.87;10.73;;;23.20;60.10;;;22.29;54.65;97913.75;5033725;28;20556;-77
2021/09/10 09:02:33;;;;;;;12.17;10.87;;;23.20;59.70;;;22.56;54.29;97934.34;5028813;28;20570;-77
2021/09/10 09:05:01;;;;;;;9.30;8.40;;;23.30;59.60;;;22.73;54.10;97938.53;5029832;28;20478;-77
2021/09/10 09:07:29;;;;;;;9.77;8.83;;;23.40;59.70;;;22.89;53.66;97942.69;5031631;28;20442;-78
2021/09/10 09:09:58;;;;;;;9.57;8.60;;;23.60;59.50;;;22.95;53.36;97926.91;5035503;28;20528;-78
2021/09/10 09:12:29;;;;;;;9.40;8.50;;;23.70;59.30;;;23.07;53.36;97931.94;5047832;28;20930;-78
2021/09/10 09:14:59;;;;;;;10.03;9.13;;;23.70;59.20;;;23.06;52.54;97935.81;5047391;28;20463;-78
2021/09/10 09:17:31;;;;;;;9.93;9.10;;;23.70;58.80;;;23.07;51.88;97926.44;5054320;28;20466;-79
2021/09/10 09:20:19;;;;;;;8.40;7.63;;;23.70;58.30;;;23.09;51.62;97929.69;5037476;28;20512;-80
2021/09/10 09:22:57;;;;;;;10.27;9.37;;;23.80;58.10;;;23.02;51.84;97932.84;5037684;28;20831;-79
2021/09/10 09:25:27;;;;;;;10.47;9.57;;;23.70;58.00;;;23.04;52.15;97927.03;5023828;28;20450;-80
2021/09/10 09:27:54;;;;;;;9.40;8.60;;;23.80;58.20;;;23.25;52.34;97926.69;5039192;28;20559;-79
2021/09/10 09:30:39;;;;;;;9.23;8.53;;;23.90;58.60;;;23.31;51.00;97922.78;5037202;28;20458;-79
2021/09/10 09:33:07;;;;;;;19.73;13.73;;;24.00;57.80;;;23.40;50.37;97915.44;5037123;28;20516;-78
2021/09/10 09:35:38;;;;;;;10.10;9.00;;;24.20;57.50;;;23.67;50.19;97921.31;5037971;28;20542;-79
2021/09/10 09:38:18;;;;;;;10.07;9.20;;;24.30;57.30;;;23.48;50.06;97911.16;5040425;28;20447;-79
2021/09/10 09:40:47;;;;;;;9.53;8.63;;;24.20;57.20;;;23.55;50.11;97919.88;5040159;28;20547;-78
2021/09/10 09:43:20;;;;;;;10.30;9.40;;;24.20;57.20;;;23.35;50.80;97904.50;5034455;28;20581;-79
2021/09/10 09:45:50;;;;;;;9.77;8.97;;;24.10;57.50;;;23.51;50.80;97913.34;5034566;28;20462;-80
2021/09/10 09:48:19;;;;;;;9.43;8.13;;;24.20;57.50;;;23.60;50.75;97910.69;5046226;28;20965;-78
2021/09/10 09:50:49;;;;;;;9.43;8.53;;;24.30;57.70;;;23.71;50.39;97914.88;5036857;28;20499;-80
2021/09/10 09:53:17;;;;;;;9.83;9.10;;;24.40;57.30;;;23.87;49.66;97914.56;5017966;28;20513;-80
2021/09/10 09:55:46;;;;;;;14.50;8.30;;;24.50;57.00;;;23.94;50.01;97923.28;5029538;28;20486;-77
2021/09/10 09:58:14;;;;;;;8.80;8.10;;;24.60;57.20;;;23.81;49.18;97885.47;5038897;28;20537;-79
2021/09/10 10:00:43;;;;;;;11.20;9.13;;;24.70;56.90;;;24.02;49.41;97900.50;5022698;28;20459;-77
2021/09/10 10:03:10;;;;;;;9.83;8.80;;;24.80;57.10;;;24.32;49.11;97925.81;5032195;28;20504;-78
2021/09/10 10:06:04;;;;;;;9.90;9.00;;;24.90;56.80;;;24.33;49.34;97912.84;5037127;28;20486;-80
2021/09/10 10:08:47;;;;;;;9.00;8.33;;;25.00;56.90;;;24.51;48.73;97911.09;5036724;28;21156;-81
2021/09/10 10:11:18;;;;;;;10.60;8.40;;;25.20;57.00;;;24.65;48.52;97910.25;5037207;28;20485;-80